Time;durP1;ratioP1;P1;durP2;ratioP2;P2;SDS_P1;SDS_P2;PMS_P1;PMS_P2;Temp;Humidity;BMP_temperature;BMP_pressure;BME280_temperature;BME280_humidity;BME280_pressure;Samples;Min_cycle;Max_cycle;Signal;HPM_P1;HPM_P2
2021/08/20 00:01:38;;;;;;;14.05;9.02;;;;;;;;;;143742;600;46010;-55
2021/08/20 00:04:06;;;;;;;13.50;10.07;;;;;;;;;;143747;586;45019;-54
2021/08/20 00:06:36;;;;;;;14.30;8.45;;;;;;;;;;143742;604;47020;-54
2021/08/20 00:09:03;;;;;;;12.95;9.32;;;;;;;;;;143743;572;46020;-55
2021/08/20 00:11:31;;;;;;;12.00;9.10;;;;;;;;;;143740;592;46020;-54
2021/08/20 00:13:58;;;;;;;14.48;9.90;;;;;;;;;;143746;569;45023;-54
2021/08/20 00:16:25;;;;;;;13.13;9.32;;;;;;;;;;143744;571;46022;-54
2021/08/20 00:18:52;;;;;;;10.93;8.75;;;;;;;;;;143743;635;46021;-54
2021/08/20 00:21:19;;;;;;;14.43;9.15;;;;;;;;;;143742;672;46010;-55
2021/08/20 00:23:46;;;;;;;10.25;8.27;;;;;;;;;;143747;656;46020;-54
2021/08/20 00:26:13;;;;;;;14.13;8.95;;;;;;;;;;143745;584;46022;-55
2021/08/20 00:28:40;;;;;;;13.43;8.95;;;;;;;;;;143741;565;46020;-55
2021/08/20 00:31:07;;;;;;;10.77;8.90;;;;;;;;;;143742;588;46010;-54
2021/08/20 00:33:36;;;;;;;15.35;9.20;;;;;;;;;;143747;618;45021;-54
2021/08/20 00:36:04;;;;;;;13.57;9.70;;;;;;;;;;143745;638;46020;-54
2021/08/20 00:38:37;;;;;;;15.35;9.23;;;;;;;;;;143741;575;46020;-55
2021/08/20 00:41:09;;;;;;;14.95;9.38;;;;;;;;;;143744;666;46011;-54
2021/08/20 00:43:37;;;;;;;18.08;10.18;;;;;;;;;;143739;564;46012;-54
2021/08/20 00:46:04;;;;;;;15.07;9.35;;;;;;;;;;143745;564;46020;-54
2021/08/20 00:48:31;;;;;;;12.20;9.70;;;;;;;;;;143742;617;46021;-54
2021/08/20 00:51:14;;;;;;;16.75;9.00;;;;;;;;;;143745;566;46010;-54
2021/08/20 00:53:42;;;;;;;13.32;9.20;;;;;;;;;;143747;592;46020;-54
2021/08/20 00:56:09;;;;;;;14.73;9.60;;;;;;;;;;143743;586;47021;-54
2021/08/20 00:58:36;;;;;;;13.40;9.57;;;;;;;;;;143743;740;46020;-54
2021/08/20 01:01:04;;;;;;;11.23;8.93;;;;;;;;;;143742;619;46010;-54
2021/08/20 01:03:32;;;;;;;10.65;8.48;;;;;;;;;;143747;564;45021;-54
2021/08/20 01:06:03;;;;;;;14.60;8.90;;;;;;;;;;143745;569;46023;-54
2021/08/20 01:08:31;;;;;;;12.65;9.52;;;;;;;;;;143741;614;46020;-54
2021/08/20 01:11:00;;;;;;;10.90;8.77;;;;;;;;;;143740;614;46010;-55
2021/08/20 01:13:34;;;;;;;9.82;8.57;;;;;;;;;;143742;602;46021;-54
2021/08/20 01:16:02;;;;;;;12.37;9.32;;;;;;;;;;143745;640;46022;-54
2021/08/20 01:18:38;;;;;;;14.73;9.60;;;;;;;;;;143742;576;46021;-55
2021/08/20 01:21:09;;;;;;;14.55;9.48;;;;;;;;;;143744;633;46010;-54
2021/08/20 01:23:36;;;;;;;12.80;9.38;;;;;;;;;;143748;570;45020;-54
2021/08/20 01:26:04;;;;;;;13.50;9.57;;;;;;;;;;143743;626;46022;-55
2021/08/20 01:28:31;;;;;;;12.55;8.77;;;;;;;;;;143742;607;46021;-54
2021/08/20 01:31:03;;;;;;;12.20;8.70;;;;;;;;;;143745;574;46010;-54
2021/08/20 01:33:31;;;;;;;11.57;10.05;;;;;;;;;;143747;669;46020;-54
2021/08/20 01:35:59;;;;;;;11.38;9.05;;;;;;;;;;143744;579;46020;-54
2021/08/20 01:38:27;;;;;;;12.35;9.07;;;;;;;;;;143743;585;46020;-54
2021/08/20 01:40:55;;;;;;;11.48;9.00;;;;;;;;;;143737;623;46011;-54
2021/08/20 01:43:22;;;;;;;12.77;8.43;;;;;;;;;;143747;575;45021;-54
2021/08/20 01:45:50;;;;;;;12.32;8.90;;;;;;;;;;143745;603;46022;-55
2021/08/20 01:48:17;;;;;;;15.98;10.63;;;;;;;;;;143743;599;46021;-54
2021/08/20 01:50:45;;;;;;;10.43;9.02;;;;;;;;;;143743;569;46010;-54
2021/08/20 01:53:15;;;;;;;11.10;9.52;;;;;;;;;;143747;573;45020;-54
2021/08/20 01:55:44;;;;;;;16.75;9.80;;;;;;;;;;143744;631;46051;-54
2021/08/20 01:58:11;;;;;;;11.93;10.57;;;;;;;;;;143741;596;46020;-54
2021/08/20 02:00:39;;;;;;;14.50;9.85;;;;;;;;;;143742;582;46010;-54
2021/08/20 02:03:06;;;;;;;12.82;9.13;;;;;;;;;;143744;664;46020;-54
2021/08/20 02:05:33;;;;;;;12.32;9.25;;;;;;;;;;143742;608;46020;-54
2021/08/20 02:08:00;;;;;;;15.65;10.25;;;;;;;;;;143741;575;46020;-55
2021/08/20 02:10:28;;;;;;;15.82;10.30;;;;;;;;;;143742;603;46011;-54
2021/08/20 02:12:55;;;;;;;12.82;9.18;;;;;;;;;;143744;565;45020;-54
2021/08/20 02:15:22;;;;;;;10.77;9.50;;;;;;;;;;143741;570;46020;-54
2021/08/20 02:17:49;;;;;;;13.52;9.35;;;;;;;;;;143742;569;46021;-54
2021/08/20 02:20:16;;;;;;;11.55;9.27;;;;;;;;;;143741;574;46010;-54
2021/08/20 02:22:43;;;;;;;12.10;9.38;;;;;;;;;;143745;582;45020;-55
2021/08/20 02:25:10;;;;;;;15.88;9.57;;;;;;;;;;143742;574;46021;-54
2021/08/20 02:27:37;;;;;;;15.25;9.18;;;;;;;;;;143739;579;46020;-54
2021/08/20 02:30:05;;;;;;;15.38;10.75;;;;;;;;;;143741;569;46010;-54
2021/08/20 02:32:32;;;;;;;12.25;9.00;;;;;;;;;;143744;663;45021;-54
2021/08/20 02:35:00;;;;;;;12.95;9.85;;;;;;;;;;143740;629;47020;-54
2021/08/20 02:37:27;;;;;;;18.73;10.90;;;;;;;;;;143741;572;46020;-54
2021/08/20 02:39:54;;;;;;;14.80;10.60;;;;;;;;;;143742;564;46010;-54
2021/08/20 02:42:21;;;;;;;18.15;8.90;;;;;;;;;;143744;648;46021;-54
2021/08/20 02:44:49;;;;;;;20.10;10.85;;;;;;;;;;143742;598;46020;-55
2021/08/20 02:47:16;;;;;;;15.23;10.23;;;;;;;;;;143740;577;46020;-55
2021/08/20 02:49:43;;;;;;;13.45;10.48;;;;;;;;;;143740;573;46010;-54
2021/08/20 02:52:10;;;;;;;12.37;10.05;;;;;;;;;;143745;616;46020;-54
2021/08/20 02:54:37;;;;;;;14.45;9.45;;;;;;;;;;143743;577;46022;-54
2021/08/20 02:57:04;;;;;;;17.10;10.80;;;;;;;;;;143738;599;46021;-54
2021/08/20 02:59:31;;;;;;;13.07;9.40;;;;;;;;;;143741;569;46018;-55
2021/08/20 03:01:58;;;;;;;12.37;9.57;;;;;;;;;;143745;577;46020;-54
2021/08/20 03:04:26;;;;;;;13.62;10.50;;;;;;;;;;143743;636;46023;-55
2021/08/20 03:06:53;;;;;;;14.55;10.02;;;;;;;;;;143739;571;46020;-54
2021/08/20 03:09:21;;;;;;;16.50;10.00;;;;;;;;;;143740;592;46011;-54
2021/08/20 03:11:48;;;;;;;13.50;9.38;;;;;;;;;;143745;583;46021;-54
2021/08/20 03:14:16;;;;;;;15.27;10.77;;;;;;;;;;143743;634;46022;-54
2021/08/20 03:16:43;;;;;;;16.00;10.30;;;;;;;;;;143738;633;46021;-54
2021/08/20 03:19:10;;;;;;;15.63;10.05;;;;;;;;;;143741;577;46010;-54
2021/08/20 03:21:37;;;;;;;17.48;10.63;;;;;;;;;;143744;614;46020;-54
2021/08/20 03:24:04;;;;;;;18.42;11.40;;;;;;;;;;143741;567;46022;-54
2021/08/20 03:26:31;;;;;;;17.27;11.50;;;;;;;;;;143740;572;46021;-54
2021/08/20 03:28:58;;;;;;;19.02;10.50;;;;;;;;;;143741;564;46010;-54
2021/08/20 03:31:26;;;;;;;14.27;10.70;;;;;;;;;;143744;582;46020;-54
2021/08/20 03:33:54;;;;;;;15.25;9.85;;;;;;;;;;143742;609;46023;-55
2021/08/20 03:36:23;;;;;;;11.77;10.25;;;;;;;;;;143737;576;46020;-54
2021/08/20 03:38:50;;;;;;;14.30;10.90;;;;;;;;;;143741;563;46010;-54
2021/08/20 03:41:22;;;;;;;12.80;10.63;;;;;;;;;;143743;569;45021;-55
2021/08/20 03:43:49;;;;;;;12.48;10.27;;;;;;;;;;143742;578;46020;-55
2021/08/20 03:46:17;;;;;;;15.95;10.52;;;;;;;;;;143741;613;46020;-54
2021/08/20 03:48:44;;;;;;;13.15;9.68;;;;;;;;;;143742;604;46010;-54
2021/08/20 03:51:12;;;;;;;19.80;13.02;;;;;;;;;;143744;579;45020;-54
2021/08/20 03:53:39;;;;;;;20.90;17.75;;;;;;;;;;143742;586;46022;-55
2021/08/20 03:56:06;;;;;;;20.62;16.33;;;;;;;;;;143739;613;46021;-54
2021/08/20 03:58:33;;;;;;;33.90;26.25;;;;;;;;;;143741;597;46010;-54
2021/08/20 04:01:00;;;;;;;27.10;22.87;;;;;;;;;;143743;603;45020;-54
2021/08/20 04:03:27;;;;;;;22.37;14.77;;;;;;;;;;143744;588;46021;-54
2021/08/20 04:05:54;;;;;;;22.35;16.02;;;;;;;;;;143739;608;46020;-54
2021/08/20 04:08:21;;;;;;;20.55;16.10;;;;;;;;;;143742;572;46010;-54
2021/08/20 04:10:48;;;;;;;15.93;12.18;;;;;;;;;;143743;600;46020;-54
2021/08/20 04:13:15;;;;;;;18.42;11.93;;;;;;;;;;143741;659;46022;-54
2021/08/20 04:15:42;;;;;;;18.70;11.73;;;;;;;;;;143738;594;46916;-54
2021/08/20 04:18:09;;;;;;;18.08;13.45;;;;;;;;;;143740;590;46021;-54
2021/08/20 04:20:36;;;;;;;22.13;11.23;;;;;;;;;;143744;619;46020;-54
2021/08/20 04:23:05;;;;;;;14.48;11.27;;;;;;;;;;143742;624;46022;-54
2021/08/20 04:25:32;;;;;;;23.48;12.23;;;;;;;;;;143739;566;46028;-54
2021/08/20 04:28:00;;;;;;;15.60;12.20;;;;;;;;;;143741;619;46010;-54
2021/08/20 04:30:30;;;;;;;22.70;12.57;;;;;;;;;;143744;606;45020;-54
2021/08/20 04:32:57;;;;;;;20.73;11.82;;;;;;;;;;143741;598;46022;-54
2021/08/20 04:35:27;;;;;;;24.65;20.35;;;;;;;;;;143740;581;46020;-54
2021/08/20 04:37:55;;;;;;;44.22;39.67;;;;;;;;;;143739;596;46010;-54
2021/08/20 04:40:22;;;;;;;39.00;34.95;;;;;;;;;;143744;569;46021;-54
2021/08/20 04:42:50;;;;;;;30.90;27.65;;;;;;;;;;143741;616;47020;-54
2021/08/20 04:45:17;;;;;;;28.58;21.77;;;;;;;;;;143741;624;46020;-54
2021/08/20 04:47:45;;;;;;;19.90;16.27;;;;;;;;;;143740;591;46010;-54
2021/08/20 04:50:13;;;;;;;21.58;16.90;;;;;;;;;;143742;636;46020;-54
2021/08/20 04:52:40;;;;;;;24.70;19.23;;;;;;;;;;143742;634;46020;-54
2021/08/20 04:55:08;;;;;;;24.30;19.90;;;;;;;;;;143738;564;46021;-54
2021/08/20 04:57:35;;;;;;;44.30;33.95;;;;;;;;;;143741;584;46010;-54
2021/08/20 05:00:05;;;;;;;24.75;20.12;;;;;;;;;;143744;605;46020;-53
2021/08/20 05:02:35;;;;;;;31.08;22.92;;;;;;;;;;143741;584;46023;-53
2021/08/20 05:05:06;;;;;;;23.55;14.07;;;;;;;;;;143739;604;46915;-54
2021/08/20 05:07:37;;;;;;;16.73;13.18;;;;;;;;;;143740;569;46010;-54
2021/08/20 05:10:10;;;;;;;19.83;12.63;;;;;;;;;;143745;671;46021;-54
2021/08/20 05:12:41;;;;;;;21.90;16.15;;;;;;;;;;143741;591;46020;-54
2021/08/20 05:15:09;;;;;;;28.33;17.25;;;;;;;;;;143735;590;48020;-54
2021/08/20 05:17:37;;;;;;;20.37;15.32;;;;;;;;;;143742;573;46010;-54
2021/08/20 05:20:05;;;;;;;25.20;15.15;;;;;;;;;;143744;656;45020;-54
2021/08/20 05:22:53;;;;;;;27.25;15.55;;;;;;;;;;143742;586;46020;-54
2021/08/20 05:25:22;;;;;;;33.83;20.88;;;;;;;;;;143739;649;46021;-54
2021/08/20 05:27:50;;;;;;;24.60;15.18;;;;;;;;;;143741;694;46010;-54
2021/08/20 05:30:18;;;;;;;17.80;13.68;;;;;;;;;;143743;569;46020;-54
2021/08/20 05:32:45;;;;;;;20.00;14.23;;;;;;;;;;143743;601;46023;-54
2021/08/20 05:35:13;;;;;;;24.80;12.20;;;;;;;;;;143738;572;46916;-54
2021/08/20 05:37:40;;;;;;;19.80;13.20;;;;;;;;;;143741;584;46010;-54
2021/08/20 05:40:08;;;;;;;26.20;13.70;;;;;;;;;;143744;660;46021;-52
2021/08/20 05:42:35;;;;;;;17.05;13.73;;;;;;;;;;143740;625;46022;-52
2021/08/20 05:45:03;;;;;;;28.15;12.30;;;;;;;;;;143739;594;46020;-52
2021/08/20 05:47:30;;;;;;;22.10;15.57;;;;;;;;;;143741;580;46010;-52
2021/08/20 05:49:56;;;;;;;19.45;13.95;;;;;;;;;;143744;662;46020;-52
2021/08/20 05:52:23;;;;;;;16.05;11.38;;;;;;;;;;143742;596;46022;-52
2021/08/20 05:54:51;;;;;;;17.27;10.65;;;;;;;;;;143739;653;46021;-53
2021/08/20 05:57:18;;;;;;;17.77;9.65;;;;;;;;;;143739;618;46910;-52
2021/08/20 05:59:44;;;;;;;16.33;10.48;;;;;;;;;;143746;571;45020;-53
2021/08/20 06:02:11;;;;;;;14.57;11.05;;;;;;;;;;143742;615;46023;-52
2021/08/20 06:04:38;;;;;;;18.00;10.80;;;;;;;;;;143739;579;46020;-52
2021/08/20 06:07:09;;;;;;;19.67;12.07;;;;;;;;;;143741;585;46010;-52
2021/08/20 06:09:36;;;;;;;14.32;10.02;;;;;;;;;;143745;579;46021;-52
2021/08/20 06:12:03;;;;;;;16.08;11.45;;;;;;;;;;143743;583;46022;-53
2021/08/20 06:14:30;;;;;;;12.82;9.98;;;;;;;;;;143740;592;46020;-53
2021/08/20 06:16:57;;;;;;;14.25;9.73;;;;;;;;;;143740;709;46011;-53
2021/08/20 06:19:25;;;;;;;14.35;9.88;;;;;;;;;;143742;583;46020;-53
2021/08/20 06:21:52;;;;;;;14.90;9.38;;;;;;;;;;143743;587;46022;-52
2021/08/20 06:24:20;;;;;;;17.58;10.43;;;;;;;;;;143741;600;46021;-52
2021/08/20 06:26:47;;;;;;;14.02;9.82;;;;;;;;;;143742;566;46010;-52
2021/08/20 06:29:16;;;;;;;17.45;9.70;;;;;;;;;;143746;588;46020;-53
2021/08/20 06:31:43;;;;;;;12.32;7.60;;;;;;;;;;143741;602;46022;-53
2021/08/20 06:34:10;;;;;;;11.30;8.23;;;;;;;;;;143739;601;46020;-53
2021/08/20 06:36:37;;;;;;;12.60;7.35;;;;;;;;;;143741;587;46010;-52
2021/08/20 06:39:04;;;;;;;9.85;7.65;;;;;;;;;;143746;677;45021;-53
2021/08/20 06:41:31;;;;;;;15.23;7.78;;;;;;;;;;143742;589;46022;-53
2021/08/20 06:43:58;;;;;;;20.30;8.00;;;;;;;;;;143740;651;46020;-52
2021/08/20 06:46:25;;;;;;;13.57;7.62;;;;;;;;;;143741;697;46020;-52
2021/08/20 06:48:52;;;;;;;14.40;7.80;;;;;;;;;;143746;615;45020;-53
2021/08/20 06:51:19;;;;;;;12.75;7.62;;;;;;;;;;143742;574;46020;-52
2021/08/20 06:53:46;;;;;;;11.48;7.03;;;;;;;;;;143741;592;46021;-53
2021/08/20 06:56:13;;;;;;;11.52;7.60;;;;;;;;;;143740;565;48020;-52
2021/08/20 06:58:40;;;;;;;14.77;8.18;;;;;;;;;;143747;573;45020;-52
2021/08/20 07:01:08;;;;;;;12.37;7.30;;;;;;;;;;143742;580;46021;-53
2021/08/20 07:03:35;;;;;;;12.52;7.05;;;;;;;;;;143741;605;46020;-53
2021/08/20 07:06:02;;;;;;;11.80;7.18;;;;;;;;;;143743;584;46010;-52
2021/08/20 07:08:29;;;;;;;10.32;6.82;;;;;;;;;;143745;583;45021;-54
2021/08/20 07:10:56;;;;;;;12.93;6.87;;;;;;;;;;143741;580;46023;-53
2021/08/20 07:13:23;;;;;;;10.68;7.40;;;;;;;;;;143741;564;46020;-53
2021/08/20 07:15:50;;;;;;;12.82;7.25;;;;;;;;;;143742;625;46010;-53
2021/08/20 07:18:17;;;;;;;12.95;7.72;;;;;;;;;;143744;571;46020;-53
2021/08/20 07:20:44;;;;;;;11.60;7.57;;;;;;;;;;143741;577;46022;-53
2021/08/20 07:23:11;;;;;;;12.40;7.53;;;;;;;;;;143741;678;46021;-52
2021/08/20 07:25:38;;;;;;;14.02;7.75;;;;;;;;;;143741;571;46010;-53
2021/08/20 07:28:05;;;;;;;9.30;7.20;;;;;;;;;;143744;564;45020;-53
2021/08/20 07:30:33;;;;;;;12.60;7.25;;;;;;;;;;143741;601;46022;-52
2021/08/20 07:33:00;;;;;;;11.23;6.50;;;;;;;;;;143741;585;46020;-53
2021/08/20 07:35:26;;;;;;;11.12;6.68;;;;;;;;;;143742;576;46010;-53
2021/08/20 07:37:53;;;;;;;11.70;6.65;;;;;;;;;;143744;583;46020;-52
2021/08/20 07:40:21;;;;;;;12.85;6.37;;;;;;;;;;143742;651;46020;-52
2021/08/20 07:42:48;;;;;;;11.25;6.43;;;;;;;;;;143738;564;46020;-52
2021/08/20 07:45:14;;;;;;;9.48;6.15;;;;;;;;;;143740;569;46010;-53
2021/08/20 07:47:50;;;;;;;19.08;6.45;;;;;;;;;;143743;599;46021;-53
2021/08/20 07:50:17;;;;;;;13.32;6.30;;;;;;;;;;143741;589;47020;-53
2021/08/20 07:52:45;;;;;;;13.88;6.15;;;;;;;;;;143739;588;46021;-53
2021/08/20 07:55:13;;;;;;;9.55;6.45;;;;;;;;;;143742;607;46010;-53
2021/08/20 07:57:51;;;;;;;10.85;6.40;;;;;;;;;;143744;574;46020;-53
2021/08/20 08:00:29;;;;;;;21.85;6.12;;;;;;;;;;143741;631;46022;-52
2021/08/20 08:02:56;;;;;;;15.63;6.25;;;;;;;;;;143739;579;46021;-53
2021/08/20 08:05:24;;;;;;;11.05;5.25;;;;;;;;;;143742;574;46010;-53
2021/08/20 08:07:52;;;;;;;11.65;6.15;;;;;;;;;;143744;699;45021;-53
2021/08/20 08:10:19;;;;;;;11.48;6.30;;;;;;;;;;143741;665;46023;-53
2021/08/20 08:12:46;;;;;;;11.05;5.75;;;;;;;;;;143740;564;46020;-54
2021/08/20 08:15:13;;;;;;;7.32;5.57;;;;;;;;;;143742;577;46011;-55
2021/08/20 08:17:40;;;;;;;10.63;6.35;;;;;;;;;;143746;567;45021;-53
2021/08/20 08:20:11;;;;;;;12.80;5.57;;;;;;;;;;143741;601;46022;-53
2021/08/20 08:22:38;;;;;;;11.32;6.07;;;;;;;;;;143740;598;46021;-54
2021/08/20 08:25:06;;;;;;;10.77;5.22;;;;;;;;;;143742;565;46021;-54
2021/08/20 08:27:44;;;;;;;9.35;5.28;;;;;;;;;;143745;586;46010;-54
2021/08/20 08:30:11;;;;;;;8.18;6.10;;;;;;;;;;143744;579;46021;-54
2021/08/20 08:32:38;;;;;;;15.30;6.25;;;;;;;;;;143737;601;48010;-54
2021/08/20 08:35:06;;;;;;;10.50;5.65;;;;;;;;;;143742;569;46010;-54
2021/08/20 08:37:33;;;;;;;7.57;5.22;;;;;;;;;;143744;601;46011;-54
2021/08/20 08:40:00;;;;;;;12.65;5.53;;;;;;;;;;143741;627;46020;-53
2021/08/20 08:42:27;;;;;;;9.80;5.53;;;;;;;;;;143735;587;50020;-53
2021/08/20 08:44:55;;;;;;;9.27;5.50;;;;;;;;;;143741;593;46011;-53
2021/08/20 08:47:22;;;;;;;11.55;5.32;;;;;;;;;;143737;620;49026;-53
2021/08/20 08:49:51;;;;;;;11.35;5.87;;;;;;;;;;143739;643;47020;-54
2021/08/20 08:52:19;;;;;;;9.63;5.57;;;;;;;;;;143739;612;46021;-54
2021/08/20 08:54:46;;;;;;;11.90;6.43;;;;;;;;;;143741;650;46010;-54
2021/08/20 08:57:15;;;;;;;16.65;6.30;;;;;;;;;;143745;569;45020;-53
2021/08/20 08:59:42;;;;;;;12.45;5.80;;;;;;;;;;143743;652;46021;-53
2021/08/20 09:02:26;;;;;;;9.70;5.70;;;;;;;;;;143741;601;46020;-53
2021/08/20 09:05:01;;;;;;;9.07;5.55;;;;;;;;;;143740;569;46010;-54
2021/08/20 09:07:29;;;;;;;6.72;5.07;;;;;;;;;;143745;580;47020;-53
2021/08/20 09:10:33;;;;;;;6.87;5.00;;;;;;;;;;143742;569;46023;-54
2021/08/20 09:13:02;;;;;;;8.85;5.12;;;;;;;;;;143740;564;46020;-54
2021/08/20 09:15:33;;;;;;;11.85;5.75;;;;;;;;;;143742;594;46011;-54
2021/08/20 09:18:03;;;;;;;10.52;4.85;;;;;;;;;;143747;642;45021;-54
2021/08/20 09:20:34;;;;;;;8.68;5.47;;;;;;;;;;143743;660;46022;-54
2021/08/20 09:23:22;;;;;;;9.65;5.53;;;;;;;;;;143741;576;46021;-54
2021/08/20 09:25:49;;;;;;;7.35;5.03;;;;;;;;;;143742;590;46010;-54
2021/08/20 09:28:30;;;;;;;12.07;5.43;;;;;;;;;;143747;579;46020;-54
2021/08/20 09:31:05;;;;;;;7.95;4.80;;;;;;;;;;143742;592;46035;-54
2021/08/20 09:33:47;;;;;;;9.02;5.40;;;;;;;;;;143739;569;46020;-55
2021/08/20 09:36:19;;;;;;;7.57;5.20;;;;;;;;;;143742;649;46010;-54
2021/08/20 09:38:57;;;;;;;9.35;5.05;;;;;;;;;;143746;599;45021;-55
2021/08/20 09:41:36;;;;;;;8.60;5.10;;;;;;;;;;143744;589;46020;-54
2021/08/20 09:44:07;;;;;;;10.18;4.93;;;;;;;;;;143742;672;46020;-55
2021/08/20 09:46:44;;;;;;;7.80;5.00;;;;;;;;;;143741;605;46010;-55
2021/08/20 09:49:14;;;;;;;6.15;4.68;;;;;;;;;;143747;565;45020;-55
2021/08/20 09:51:47;;;;;;;8.93;4.97;;;;;;;;;;143741;600;47021;-55
2021/08/20 09:54:23;;;;;;;9.23;4.82;;;;;;;;;;143740;624;46021;-55
2021/08/20 09:56:51;;;;;;;9.15;6.45;;;;;;;;;;143744;564;46010;-54
2021/08/20 09:59:19;;;;;;;12.75;6.87;;;;;;;;;;143747;606;45021;-54
2021/08/20 10:01:47;;;;;;;12.20;7.85;;;;;;;;;;143745;624;46023;-54
2021/08/20 10:04:17;;;;;;;17.45;12.32;;;;;;;;;;143741;564;46020;-55
2021/08/20 10:06:47;;;;;;;14.05;11.10;;;;;;;;;;143740;570;46012;-54
2021/08/20 10:09:16;;;;;;;14.05;10.20;;;;;;;;;;143747;619;46020;-55
2021/08/20 10:11:50;;;;;;;12.48;8.43;;;;;;;;;;143744;652;46022;-55
2021/08/20 10:14:24;;;;;;;9.30;6.85;;;;;;;;;;143741;664;46021;-54
2021/08/20 10:16:51;;;;;;;12.98;6.28;;;;;;;;;;143743;705;46010;-54
2021/08/20 10:19:19;;;;;;;12.68;5.95;;;;;;;;;;143746;673;45020;-55
2021/08/20 10:21:46;;;;;;;11.23;6.12;;;;;;;;;;143743;570;46022;-54
2021/08/20 10:24:14;;;;;;;9.55;4.85;;;;;;;;;;143741;614;46020;-55
2021/08/20 10:27:03;;;;;;;12.70;5.35;;;;;;;;;;143742;682;46010;-54
2021/08/20 10:29:32;;;;;;;9.80;4.70;;;;;;;;;;143748;639;46020;-54
2021/08/20 10:32:02;;;;;;;11.07;4.97;;;;;;;;;;143744;564;46020;-54
2021/08/20 10:34:47;;;;;;;9.10;4.65;;;;;;;;;;143741;575;46020;-55
2021/08/20 10:37:24;;;;;;;9.40;4.95;;;;;;;;;;143739;733;47038;-55
2021/08/20 10:39:54;;;;;;;11.93;5.32;;;;;;;;;;143745;654;45020;-54
2021/08/20 10:42:41;;;;;;;8.82;5.25;;;;;;;;;;143744;564;46022;-54
2021/08/20 10:45:13;;;;;;;8.88;5.70;;;;;;;;;;143740;606;46021;-55
2021/08/20 10:47:40;;;;;;;8.68;5.60;;;;;;;;;;143743;617;46010;-55
2021/08/20 10:50:19;;;;;;;8.40;4.80;;;;;;;;;;143747;766;45020;-54
2021/08/20 10:52:53;;;;;;;12.73;5.65;;;;;;;;;;143745;659;46021;-55
2021/08/20 10:55:30;;;;;;;11.12;5.10;;;;;;;;;;143742;692;46020;-54
2021/08/20 10:58:02;;;;;;;6.65;4.40;;;;;;;;;;143745;608;46010;-54
2021/08/20 11:00:37;;;;;;;10.50;4.75;;;;;;;;;;143748;584;45021;-54
2021/08/20 11:03:09;;;;;;;9.75;4.85;;;;;;;;;;143744;728;46020;-54
2021/08/20 11:05:41;;;;;;;10.13;5.10;;;;;;;;;;143742;788;46020;-54
2021/08/20 11:08:32;;;;;;;8.55;5.72;;;;;;;;;;143743;689;46021;-54
2021/08/20 11:11:00;;;;;;;10.40;4.90;;;;;;;;;;143746;645;45022;-55
2021/08/20 11:13:28;;;;;;;12.27;4.60;;;;;;;;;;143744;794;47021;-54
2021/08/20 11:15:55;;;;;;;7.45;4.55;;;;;;;;;;143741;584;46020;-54
2021/08/20 11:18:43;;;;;;;9.50;4.75;;;;;;;;;;143743;798;46010;-55
2021/08/20 11:21:10;;;;;;;9.52;4.50;;;;;;;;;;143747;571;45021;-54
2021/08/20 11:23:37;;;;;;;7.72;4.72;;;;;;;;;;143744;573;46020;-55
2021/08/20 11:26:04;;;;;;;9.00;4.50;;;;;;;;;;143744;609;46020;-54
2021/08/20 11:28:47;;;;;;;9.77;5.28;;;;;;;;;;143744;607;46010;-54
2021/08/20 11:31:16;;;;;;;10.57;4.65;;;;;;;;;;143747;564;46020;-54
2021/08/20 11:33:45;;;;;;;9.35;4.87;;;;;;;;;;143745;639;46020;-54
2021/08/20 11:36:18;;;;;;;14.93;5.45;;;;;;;;;;143743;578;46021;-54
2021/08/20 11:38:49;;;;;;;8.88;5.20;;;;;;;;;;143744;603;46010;-54
2021/08/20 11:41:35;;;;;;;10.55;5.10;;;;;;;;;;143745;619;45020;-54
2021/08/20 11:44:07;;;;;;;7.32;4.82;;;;;;;;;;143733;573;46022;-54
2021/08/20 11:46:48;;;;;;;6.97;4.85;;;;;;;;;;143740;572;46020;-54
2021/08/20 11:49:25;;;;;;;8.98;4.82;;;;;;;;;;143743;623;46010;-54
2021/08/20 11:51:52;;;;;;;10.45;5.05;;;;;;;;;;143747;611;46021;-55
2021/08/20 11:54:19;;;;;;;10.55;4.90;;;;;;;;;;143745;564;47020;-54
2021/08/20 11:56:54;;;;;;;8.93;5.68;;;;;;;;;;143741;585;46020;-54
2021/08/20 11:59:22;;;;;;;7.20;4.93;;;;;;;;;;143744;567;46010;-54
2021/08/20 12:01:55;;;;;;;6.95;4.93;;;;;;;;;;143745;587;46020;-54
2021/08/20 12:04:25;;;;;;;9.38;4.87;;;;;;;;;;143744;578;46022;-54
2021/08/20 12:06:53;;;;;;;11.55;5.18;;;;;;;;;;143741;595;46021;-54
2021/08/20 12:09:22;;;;;;;8.35;5.30;;;;;;;;;;143744;573;46010;-54
2021/08/20 12:11:51;;;;;;;8.82;4.72;;;;;;;;;;143746;653;46020;-54
2021/08/20 12:14:20;;;;;;;7.93;5.05;;;;;;;;;;143743;658;46022;-54
2021/08/20 12:16:55;;;;;;;7.57;5.07;;;;;;;;;;143741;591;46020;-53
2021/08/20 12:19:27;;;;;;;7.28;5.00;;;;;;;;;;143745;667;46010;-54
2021/08/20 12:22:08;;;;;;;7.62;5.05;;;;;;;;;;143746;572;46021;-54
2021/08/20 12:24:52;;;;;;;8.73;5.50;;;;;;;;;;143744;664;46022;-54
2021/08/20 12:27:27;;;;;;;7.00;4.85;;;;;;;;;;143740;621;46020;-54
2021/08/20 12:30:23;;;;;;;8.05;5.43;;;;;;;;;;143743;585;46010;-54
2021/08/20 12:32:58;;;;;;;11.95;5.25;;;;;;;;;;143747;664;46020;-54
2021/08/20 12:35:26;;;;;;;9.65;5.68;;;;;;;;;;143743;670;46022;-54
2021/08/20 12:38:07;;;;;;;8.88;4.65;;;;;;;;;;143742;564;46020;-54
2021/08/20 12:40:57;;;;;;;7.47;5.03;;;;;;;;;;143740;589;46010;-54
2021/08/20 12:43:51;;;;;;;12.52;5.30;;;;;;;;;;143746;616;45021;-54
2021/08/20 12:46:22;;;;;;;;;;;;;;;;;;143748;982;46024;-54
2021/08/20 12:49:00;;;;;;;6.62;5.03;;;;;;;;;;143744;608;46030;-54
2021/08/20 12:51:28;;;;;;;6.65;4.15;;;;;;;;;;143744;614;46010;-54
2021/08/20 12:54:04;;;;;;;6.80;4.78;;;;;;;;;;143746;603;45020;-55
2021/08/20 12:56:44;;;;;;;8.82;5.00;;;;;;;;;;143744;616;46022;-54
2021/08/20 12:59:17;;;;;;;10.90;5.28;;;;;;;;;;143740;662;46021;-55
2021/08/20 13:01:44;;;;;;;9.52;5.30;;;;;;;;;;143742;601;46010;-54
2021/08/20 13:04:13;;;;;;;13.07;6.15;;;;;;;;;;143748;700;46020;-54
2021/08/20 13:06:40;;;;;;;7.53;4.97;;;;;;;;;;143744;572;46023;-54
2021/08/20 13:09:07;;;;;;;7.93;4.50;;;;;;;;;;143741;570;46020;-54
2021/08/20 13:11:34;;;;;;;9.05;5.10;;;;;;;;;;143741;638;46010;-54
2021/08/20 13:14:03;;;;;;;10.05;5.70;;;;;;;;;;143747;604;46021;-55
2021/08/20 13:16:30;;;;;;;7.30;4.80;;;;;;;;;;143743;577;45022;-54
2021/08/20 13:18:58;;;;;;;6.05;4.55;;;;;;;;;;143742;568;46020;-54
2021/08/20 13:21:25;;;;;;;7.15;4.90;;;;;;;;;;143745;577;46010;-54
2021/08/20 13:23:52;;;;;;;8.25;5.12;;;;;;;;;;143746;575;46020;-54
2021/08/20 13:26:19;;;;;;;5.82;4.70;;;;;;;;;;143744;610;46020;-54
2021/08/20 13:28:46;;;;;;;8.00;4.75;;;;;;;;;;143742;565;46021;-54
2021/08/20 13:31:13;;;;;;;10.18;4.90;;;;;;;;;;143743;569;46010;-54
2021/08/20 13:33:40;;;;;;;8.95;4.93;;;;;;;;;;143746;592;46020;-54
2021/08/20 13:36:07;;;;;;;10.45;5.47;;;;;;;;;;143742;571;47021;-54
2021/08/20 13:38:34;;;;;;;9.52;4.93;;;;;;;;;;143743;599;46020;-54
2021/08/20 13:41:02;;;;;;;7.80;4.93;;;;;;;;;;143743;594;46010;-54
2021/08/20 13:43:30;;;;;;;9.55;6.00;;;;;;;;;;143747;603;46020;-54
2021/08/20 13:45:57;;;;;;;13.02;5.30;;;;;;;;;;143745;564;46020;-54
2021/08/20 13:48:24;;;;;;;9.90;5.57;;;;;;;;;;143741;569;46020;-54
2021/08/20 13:50:51;;;;;;;9.98;5.37;;;;;;;;;;143743;597;46011;-54
2021/08/20 13:53:18;;;;;;;6.47;4.85;;;;;;;;;;143746;641;46020;-54
2021/08/20 13:55:45;;;;;;;14.20;5.50;;;;;;;;;;143744;618;46022;-54
2021/08/20 13:58:12;;;;;;;10.93;5.20;;;;;;;;;;143739;578;46021;-54
2021/08/20 14:00:39;;;;;;;8.77;5.20;;;;;;;;;;143744;571;46010;-54
2021/08/20 14:03:06;;;;;;;9.70;4.68;;;;;;;;;;143746;569;46020;-54
2021/08/20 14:05:34;;;;;;;8.57;4.93;;;;;;;;;;143742;589;46022;-54
2021/08/20 14:08:03;;;;;;;10.23;5.45;;;;;;;;;;143743;618;46020;-54
2021/08/20 14:10:30;;;;;;;8.15;5.40;;;;;;;;;;143743;600;46010;-54
2021/08/20 14:12:57;;;;;;;8.40;5.57;;;;;;;;;;143747;628;45021;-54
2021/08/20 14:15:24;;;;;;;8.75;5.20;;;;;;;;;;143745;598;46023;-54
2021/08/20 14:17:51;;;;;;;6.75;4.70;;;;;;;;;;143743;579;46020;-54
2021/08/20 14:20:20;;;;;;;10.00;5.60;;;;;;;;;;143743;601;46010;-54
2021/08/20 14:22:47;;;;;;;9.18;4.57;;;;;;;;;;143743;575;46020;-54
2021/08/20 14:25:15;;;;;;;7.18;5.15;;;;;;;;;;143745;630;46022;-54
2021/08/20 14:27:42;;;;;;;9.15;5.25;;;;;;;;;;143743;583;46021;-54
2021/08/20 14:30:10;;;;;;;9.52;5.30;;;;;;;;;;143745;602;46010;-55
2021/08/20 14:32:38;;;;;;;7.43;4.97;;;;;;;;;;143747;583;45020;-54
2021/08/20 14:35:06;;;;;;;9.27;5.43;;;;;;;;;;143742;596;46022;-54
2021/08/20 14:37:33;;;;;;;7.30;4.70;;;;;;;;;;143739;569;46020;-54
2021/08/20 14:40:00;;;;;;;10.15;5.30;;;;;;;;;;143741;564;46010;-54
2021/08/20 14:42:29;;;;;;;9.52;5.25;;;;;;;;;;143745;586;45021;-54
2021/08/20 14:44:56;;;;;;;7.60;5.15;;;;;;;;;;143742;581;46023;-54